Time;durP1;ratioP1;P1;durP2;ratioP2;P2;SDS_P1;SDS_P2;PMS_P1;PMS_P2;Temp;Humidity;BMP_temperature;BMP_pressure;BME280_temperature;BME280_humidity;BME280_pressure;Samples;Min_cycle;Max_cycle;Signal;HPM_P1;HPM_P2
2023/01/27 00:00:36;;;;;;;12.48;7.20;;;;;;;;;;5054532;28;20537;-77
2023/01/27 00:03:04;;;;;;;14.18;8.20;;;;;;;;;;5066289;28;20189;-77
2023/01/27 00:05:31;;;;;;;17.38;8.75;;;;;;;;;;5074977;28;20185;-77
2023/01/27 00:07:59;;;;;;;14.77;9.07;;;;;;;;;;5070768;28;20281;-77
2023/01/27 00:10:27;;;;;;;11.15;7.47;;;;;;;;;;5054839;28;20518;-77
2023/01/27 00:15:41;;;;;;;13.35;8.50;;;;;;;;;;5064848;28;20262;-77
2023/01/27 00:18:09;;;;;;;15.38;9.52;;;;;;;;;;5054464;28;20233;-77
2023/01/27 00:26:09;;;;;;;21.67;9.00;;;;;;;;;;5062037;28;20271;-77
2023/01/27 00:28:37;;;;;;;13.50;8.30;;;;;;;;;;5054388;28;20226;-77
2023/01/27 00:31:06;;;;;;;15.15;8.90;;;;;;;;;;5064054;28;20221;-77
2023/01/27 00:33:33;;;;;;;14.63;8.55;;;;;;;;;;5038334;28;20560;-77
2023/01/27 00:36:01;;;;;;;14.13;8.63;;;;;;;;;;5063938;28;20189;-78
2023/01/27 00:38:29;;;;;;;11.85;8.70;;;;;;;;;;5053993;28;20208;-77
2023/01/27 00:43:41;;;;;;;16.85;8.55;;;;;;;;;;5058578;28;20193;-77
2023/01/27 00:46:10;;;;;;;15.15;8.65;;;;;;;;;;5053345;28;20754;-77
2023/01/27 00:48:38;;;;;;;17.63;10.30;;;;;;;;;;5062686;28;20186;-77
2023/01/27 00:51:08;;;;;;;17.50;9.73;;;;;;;;;;5066725;28;20229;-77
2023/01/27 00:53:36;;;;;;;14.30;8.40;;;;;;;;;;5053830;28;20190;-77
2023/01/27 00:56:04;;;;;;;14.68;8.52;;;;;;;;;;5050994;28;20597;-77
2023/01/27 00:58:31;;;;;;;15.07;9.23;;;;;;;;;;5072709;28;20194;-77
2023/01/27 01:01:00;;;;;;;15.00;9.25;;;;;;;;;;5053794;28;20198;-78
2023/01/27 01:03:30;;;;;;;18.40;9.30;;;;;;;;;;5053459;28;20190;-77
2023/01/27 01:05:58;;;;;;;19.20;10.35;;;;;;;;;;5073522;28;20190;-77
2023/01/27 01:08:25;;;;;;;14.63;9.07;;;;;;;;;;5074017;28;20189;-77
2023/01/27 01:10:53;;;;;;;13.65;7.97;;;;;;;;;;5053912;28;20217;-77
2023/01/27 01:13:20;;;;;;;14.05;7.82;;;;;;;;;;5053664;28;20259;-77
2023/01/27 01:15:48;;;;;;;16.08;9.55;;;;;;;;;;5070799;28;20239;-77
2023/01/27 01:18:17;;;;;;;14.18;8.25;;;;;;;;;;5073763;28;20301;-77
2023/01/27 01:20:46;;;;;;;12.60;8.05;;;;;;;;;;5058070;28;20217;-77
2023/01/27 01:23:14;;;;;;;16.95;8.90;;;;;;;;;;5073278;28;20196;-77
2023/01/27 01:25:42;;;;;;;13.48;7.97;;;;;;;;;;5056834;28;20194;-77
2023/01/27 01:28:09;;;;;;;11.85;7.88;;;;;;;;;;5053393;28;20197;-77
2023/01/27 01:30:37;;;;;;;15.88;9.15;;;;;;;;;;5067042;28;20224;-77
2023/01/27 01:33:05;;;;;;;11.50;7.03;;;;;;;;;;5054829;28;20190;-77
2023/01/27 01:35:38;;;;;;;15.07;8.50;;;;;;;;;;5053007;28;20252;-77
2023/01/27 01:38:07;;;;;;;17.05;9.93;;;;;;;;;;5054281;28;20186;-77
2023/01/27 01:40:35;;;;;;;13.25;8.43;;;;;;;;;;5071941;28;20541;-78
2023/01/27 01:43:04;;;;;;;16.35;9.57;;;;;;;;;;5053114;28;20194;-75
2023/01/27 01:45:53;;;;;;;15.88;9.07;;;;;;;;;;5053007;28;20221;-78
2023/01/27 01:48:30;;;;;;;11.50;7.38;;;;;;;;;;5067017;28;20212;-78
2023/01/27 01:50:58;;;;;;;14.32;8.00;;;;;;;;;;5069063;28;20680;-77
2023/01/27 01:53:30;;;;;;;14.35;9.25;;;;;;;;;;5059930;28;20190;-78
2023/01/27 01:56:00;;;;;;;14.45;8.40;;;;;;;;;;5061199;28;20599;-76
2023/01/27 01:58:28;;;;;;;15.30;8.00;;;;;;;;;;5051767;28;20557;-77
2023/01/27 02:00:56;;;;;;;15.63;8.15;;;;;;;;;;5062294;28;20235;-77
2023/01/27 02:03:24;;;;;;;12.07;7.95;;;;;;;;;;5072675;28;20196;-77
2023/01/27 02:05:54;;;;;;;13.52;8.15;;;;;;;;;;5063076;28;20187;-77
2023/01/27 02:08:23;;;;;;;13.52;8.85;;;;;;;;;;5052545;28;20233;-77
2023/01/27 02:10:53;;;;;;;13.15;7.78;;;;;;;;;;5053313;28;20300;-76
2023/01/27 02:13:20;;;;;;;12.57;6.55;;;;;;;;;;5052811;28;20277;-77
2023/01/27 02:15:48;;;;;;;15.63;8.35;;;;;;;;;;5059566;28;20209;-77
2023/01/27 02:18:16;;;;;;;12.00;7.18;;;;;;;;;;5072253;28;20190;-78
2023/01/27 02:20:44;;;;;;;13.05;7.40;;;;;;;;;;5070344;28;20182;-76
2023/01/27 02:23:29;;;;;;;11.23;7.55;;;;;;;;;;5072354;28;20281;-77
2023/01/27 02:26:00;;;;;;;11.40;7.55;;;;;;;;;;5060182;28;20182;-77
2023/01/27 02:28:28;;;;;;;14.65;8.52;;;;;;;;;;5052281;28;20190;-77
2023/01/27 02:30:56;;;;;;;13.45;9.02;;;;;;;;;;5058533;28;20213;-77
2023/01/27 02:33:24;;;;;;;13.57;8.27;;;;;;;;;;5072228;28;20200;-77
2023/01/27 02:35:54;;;;;;;13.25;8.98;;;;;;;;;;5061659;28;20186;-77
2023/01/27 02:38:22;;;;;;;13.88;7.50;;;;;;;;;;5065092;28;20190;-77
2023/01/27 02:40:51;;;;;;;12.88;7.90;;;;;;;;;;5058206;28;20652;-78
2023/01/27 02:43:20;;;;;;;16.92;9.57;;;;;;;;;;5053325;28;20233;-77
2023/01/27 02:45:48;;;;;;;17.77;8.35;;;;;;;;;;5071857;28;20256;-77
2023/01/27 02:48:16;;;;;;;13.57;8.90;;;;;;;;;;5071569;28;20190;-77
2023/01/27 02:50:43;;;;;;;15.25;8.50;;;;;;;;;;5070084;28;20210;-77
2023/01/27 02:53:10;;;;;;;14.55;8.95;;;;;;;;;;5072023;28;20276;-77
2023/01/27 02:55:38;;;;;;;15.20;8.73;;;;;;;;;;5052511;28;20708;-77
2023/01/27 02:58:05;;;;;;;16.30;8.90;;;;;;;;;;5043675;28;20186;-77
2023/01/27 03:00:36;;;;;;;12.82;8.85;;;;;;;;;;5068932;28;20186;-77
2023/01/27 03:03:03;;;;;;;15.52;9.68;;;;;;;;;;5063441;28;20647;-77
2023/01/27 03:05:31;;;;;;;16.23;8.88;;;;;;;;;;5054742;28;20579;-77
2023/01/27 03:07:59;;;;;;;14.07;7.90;;;;;;;;;;5051746;28;20198;-77
2023/01/27 03:10:26;;;;;;;11.85;8.32;;;;;;;;;;5067684;28;20284;-77
2023/01/27 03:12:54;;;;;;;16.92;8.85;;;;;;;;;;5076021;28;20288;-77
2023/01/27 03:18:16;;;;;;;19.13;10.13;;;;;;;;;;5055820;28;20233;-78
2023/01/27 03:20:44;;;;;;;15.48;8.45;;;;;;;;;;5071564;28;20639;-77
2023/01/27 03:23:12;;;;;;;16.65;9.02;;;;;;;;;;5075569;28;20204;-77
2023/01/27 03:25:43;;;;;;;15.18;9.45;;;;;;;;;;5059541;28;20186;-77
2023/01/27 03:28:11;;;;;;;15.52;9.65;;;;;;;;;;5055503;28;20277;-77
2023/01/27 03:30:39;;;;;;;16.02;9.90;;;;;;;;;;5069532;28;20680;-77
2023/01/27 03:33:08;;;;;;;18.02;9.43;;;;;;;;;;5075432;28;20219;-77
2023/01/27 03:35:47;;;;;;;16.70;9.50;;;;;;;;;;5060774;28;20214;-77
2023/01/27 03:46:31;;;;;;;17.13;8.55;;;;;;;;;;5055730;28;20241;-77
2023/01/27 03:49:00;;;;;;;16.40;9.90;;;;;;;;;;5058098;28;20193;-76
2023/01/27 03:51:28;;;;;;;16.65;10.20;;;;;;;;;;5074527;28;20726;-77
2023/01/27 03:53:55;;;;;;;15.85;8.60;;;;;;;;;;5072523;28;20216;-77
2023/01/27 03:56:23;;;;;;;14.57;8.82;;;;;;;;;;5055050;28;20194;-77
2023/01/27 03:58:51;;;;;;;14.30;8.82;;;;;;;;;;5055988;28;20194;-77
2023/01/27 04:01:19;;;;;;;17.30;10.82;;;;;;;;;;5074617;28;20198;-77
2023/01/27 04:06:55;;;;;;;14.52;8.77;;;;;;;;;;5055115;28;20189;-76
2023/01/27 04:09:23;;;;;;;18.63;9.10;;;;;;;;;;5074648;28;20274;-78
2023/01/27 04:11:58;;;;;;;16.73;8.38;;;;;;;;;;5059989;28;20225;-78
2023/01/27 04:14:27;;;;;;;17.08;9.57;;;;;;;;;;5055057;28;20728;-78
2023/01/27 04:16:56;;;;;;;18.25;9.95;;;;;;;;;;5069250;28;20193;-77
2023/01/27 04:19:24;;;;;;;20.27;10.20;;;;;;;;;;5074976;28;20202;-77
2023/01/27 04:21:54;;;;;;;17.17;9.50;;;;;;;;;;5059444;28;20195;-77
2023/01/27 04:24:25;;;;;;;21.70;11.60;;;;;;;;;;5054717;28;20247;-77
2023/01/27 04:26:56;;;;;;;16.20;9.93;;;;;;;;;;5067908;28;20178;-77
2023/01/27 04:29:25;;;;;;;14.27;10.13;;;;;;;;;;5074251;28;20197;-77
2023/01/27 04:31:52;;;;;;;17.10;11.20;;;;;;;;;;5060046;28;20226;-76
2023/01/27 04:34:20;;;;;;;18.63;10.15;;;;;;;;;;5054426;28;20195;-77
2023/01/27 04:36:48;;;;;;;18.77;10.00;;;;;;;;;;5066924;28;20647;-78
2023/01/27 04:39:17;;;;;;;15.85;10.35;;;;;;;;;;5074659;28;20201;-76
2023/01/27 04:41:45;;;;;;;16.35;9.32;;;;;;;;;;5061084;28;20572;-77
2023/01/27 04:44:12;;;;;;;18.38;9.65;;;;;;;;;;5054512;28;20281;-77
2023/01/27 04:46:40;;;;;;;14.63;9.02;;;;;;;;;;5065070;28;20210;-77
2023/01/27 04:49:08;;;;;;;15.60;10.48;;;;;;;;;;5074329;28;20239;-78
2023/01/27 04:51:35;;;;;;;12.10;8.05;;;;;;;;;;5062831;28;20225;-78
2023/01/27 04:54:04;;;;;;;22.90;9.40;;;;;;;;;;5054069;28;20664;-78
2023/01/27 04:56:34;;;;;;;16.48;8.48;;;;;;;;;;5063433;28;20190;-78
2023/01/27 04:59:02;;;;;;;14.90;8.93;;;;;;;;;;5074283;28;20197;-77
2023/01/27 05:01:30;;;;;;;14.57;9.27;;;;;;;;;;5064047;28;20497;-78
2023/01/27 05:03:58;;;;;;;13.93;8.73;;;;;;;;;;5073959;28;20241;-77
2023/01/27 05:06:26;;;;;;;15.38;9.20;;;;;;;;;;5073391;28;20235;-78
2023/01/27 05:08:53;;;;;;;15.45;7.95;;;;;;;;;;5074133;28;20198;-78
2023/01/27 05:11:21;;;;;;;18.23;8.43;;;;;;;;;;5064752;28;21003;-77
2023/01/27 05:13:50;;;;;;;16.58;8.23;;;;;;;;;;5054044;28;20201;-78
2023/01/27 05:16:19;;;;;;;12.70;7.70;;;;;;;;;;5061044;28;20541;-77
2023/01/27 05:18:47;;;;;;;14.80;8.55;;;;;;;;;;5073955;28;20200;-77
2023/01/27 05:21:16;;;;;;;14.68;7.75;;;;;;;;;;5065695;28;20202;-77
2023/01/27 05:23:43;;;;;;;11.98;8.43;;;;;;;;;;5053687;28;20675;-77
2023/01/27 05:26:12;;;;;;;15.82;8.38;;;;;;;;;;5059340;28;20185;-77
2023/01/27 05:28:40;;;;;;;12.05;7.75;;;;;;;;;;5073532;28;20263;-77
2023/01/27 05:31:10;;;;;;;14.95;7.15;;;;;;;;;;5066895;28;20234;-77
2023/01/27 05:33:38;;;;;;;11.55;6.80;;;;;;;;;;5052892;28;20194;-77
2023/01/27 05:36:08;;;;;;;12.32;6.93;;;;;;;;;;5054634;28;20197;-77
2023/01/27 05:38:36;;;;;;;14.88;6.82;;;;;;;;;;5063221;28;20191;-77
2023/01/27 05:41:04;;;;;;;12.18;7.15;;;;;;;;;;5053227;28;20198;-77
2023/01/27 05:43:33;;;;;;;14.80;7.47;;;;;;;;;;5056566;28;20190;-77
2023/01/27 05:46:04;;;;;;;14.35;6.20;;;;;;;;;;5073365;28;20316;-77
2023/01/27 05:48:34;;;;;;;11.07;6.72;;;;;;;;;;5069348;28;20205;-77
2023/01/27 05:51:01;;;;;;;12.85;7.03;;;;;;;;;;5052517;28;20210;-77
2023/01/27 05:53:29;;;;;;;12.77;6.35;;;;;;;;;;5054999;28;20194;-76
2023/01/27 05:55:56;;;;;;;13.18;6.50;;;;;;;;;;5070961;28;20190;-77
2023/01/27 05:58:24;;;;;;;12.50;6.25;;;;;;;;;;5072796;28;20198;-77
2023/01/27 06:00:52;;;;;;;10.88;5.72;;;;;;;;;;5072113;28;20225;-78
2023/01/27 06:03:19;;;;;;;21.20;7.65;;;;;;;;;;5052814;28;20198;-77
2023/01/27 06:05:52;;;;;;;15.10;7.85;;;;;;;;;;5052617;28;20206;-77
2023/01/27 06:08:19;;;;;;;14.30;8.27;;;;;;;;;;5068773;28;20620;-77
2023/01/27 06:10:47;;;;;;;15.77;8.23;;;;;;;;;;5052669;28;20198;-76
2023/01/27 06:13:14;;;;;;;17.38;8.52;;;;;;;;;;5069103;28;20225;-75
2023/01/27 06:15:43;;;;;;;18.20;9.80;;;;;;;;;;5066137;28;20521;-77
2023/01/27 06:18:10;;;;;;;22.10;8.85;;;;;;;;;;5052646;28;20289;-77
2023/01/27 06:20:38;;;;;;;20.23;10.48;;;;;;;;;;5057356;28;20636;-77
2023/01/27 06:23:07;;;;;;;15.02;8.25;;;;;;;;;;5071105;28;20193;-77
2023/01/27 06:25:38;;;;;;;17.17;9.55;;;;;;;;;;5052749;28;20556;-77
2023/01/27 06:28:06;;;;;;;15.23;8.38;;;;;;;;;;5052233;28;20229;-77
2023/01/27 06:30:34;;;;;;;15.52;9.65;;;;;;;;;;5052814;28;20524;-78
2023/01/27 06:33:02;;;;;;;15.18;8.95;;;;;;;;;;5052277;28;20221;-76
2023/01/27 06:35:30;;;;;;;14.25;8.52;;;;;;;;;;5072398;28;20182;-77
2023/01/27 06:37:58;;;;;;;15.50;9.10;;;;;;;;;;5072325;28;20259;-76
2023/01/27 06:40:27;;;;;;;13.82;8.75;;;;;;;;;;5053725;28;20197;-76
2023/01/27 06:42:55;;;;;;;15.25;8.82;;;;;;;;;;5052361;28;20553;-76
2023/01/27 06:45:23;;;;;;;14.20;8.27;;;;;;;;;;5069441;28;20244;-76
2023/01/27 06:47:56;;;;;;;17.58;9.07;;;;;;;;;;5064836;28;20209;-77
2023/01/27 06:50:23;;;;;;;13.20;7.47;;;;;;;;;;5071301;28;20185;-76
2023/01/27 06:52:51;;;;;;;11.27;7.20;;;;;;;;;;5072051;28;20683;-76
2023/01/27 06:55:19;;;;;;;16.48;8.50;;;;;;;;;;5065647;28;20218;-76
2023/01/27 06:57:48;;;;;;;15.05;9.27;;;;;;;;;;5051854;28;20229;-76
2023/01/27 07:00:16;;;;;;;15.05;8.93;;;;;;;;;;5057226;28;20193;-76
2023/01/27 07:02:44;;;;;;;16.67;9.55;;;;;;;;;;5071565;28;20216;-77
2023/01/27 07:05:12;;;;;;;15.82;8.73;;;;;;;;;;5059742;28;20660;-77
2023/01/27 07:07:39;;;;;;;13.65;6.95;;;;;;;;;;5051175;28;20754;-77
2023/01/27 07:10:08;;;;;;;17.08;8.95;;;;;;;;;;5058475;28;20209;-76
2023/01/27 07:12:36;;;;;;;11.70;7.97;;;;;;;;;;5063852;28;20220;-77
2023/01/27 07:15:08;;;;;;;14.02;7.50;;;;;;;;;;5067233;28;20595;-76
2023/01/27 07:17:36;;;;;;;15.15;8.05;;;;;;;;;;5055250;28;20248;-77
2023/01/27 07:20:03;;;;;;;13.90;7.90;;;;;;;;;;5067350;28;20636;-77
2023/01/27 07:22:31;;;;;;;13.18;7.65;;;;;;;;;;5069424;28;20251;-76
2023/01/27 07:24:58;;;;;;;15.88;8.93;;;;;;;;;;5055935;28;20324;-77
2023/01/27 07:27:25;;;;;;;12.68;8.00;;;;;;;;;;5059368;28;20663;-77
2023/01/27 07:29:53;;;;;;;13.45;9.48;;;;;;;;;;5067933;28;20189;-76
2023/01/27 07:32:22;;;;;;;14.38;7.43;;;;;;;;;;5069079;28;20209;-76
2023/01/27 07:34:49;;;;;;;15.52;8.50;;;;;;;;;;5051005;28;20277;-77
2023/01/27 07:37:16;;;;;;;17.17;8.38;;;;;;;;;;5065235;28;20222;-77
2023/01/27 07:39:43;;;;;;;15.85;9.52;;;;;;;;;;5069478;28;20198;-76
2023/01/27 07:42:11;;;;;;;16.02;8.40;;;;;;;;;;5065975;28;20226;-76
2023/01/27 07:44:38;;;;;;;19.50;8.75;;;;;;;;;;5066559;28;20603;-76
2023/01/27 07:47:05;;;;;;;12.15;7.95;;;;;;;;;;5036902;28;20362;-77
2023/01/27 07:49:34;;;;;;;15.60;8.35;;;;;;;;;;5031429;28;20196;-76
2023/01/27 07:52:01;;;;;;;14.95;8.40;;;;;;;;;;5042473;28;20214;-77
2023/01/27 07:54:29;;;;;;;13.43;7.82;;;;;;;;;;5048324;28;20272;-77
2023/01/27 07:56:57;;;;;;;17.42;8.68;;;;;;;;;;5047213;28;20236;-76
2023/01/27 07:59:24;;;;;;;15.88;9.30;;;;;;;;;;5052418;28;20198;-76
2023/01/27 08:01:51;;;;;;;12.50;7.65;;;;;;;;;;5035568;28;20210;-77
2023/01/27 08:04:19;;;;;;;15.32;8.20;;;;;;;;;;5035698;28;20245;-77
2023/01/27 08:06:48;;;;;;;15.15;9.27;;;;;;;;;;5035425;28;20187;-77
2023/01/27 08:09:15;;;;;;;17.73;9.88;;;;;;;;;;5033864;28;20227;-76
2023/01/27 08:11:42;;;;;;;16.23;9.73;;;;;;;;;;5035086;28;20269;-76
2023/01/27 08:14:12;;;;;;;16.60;9.60;;;;;;;;;;5035517;28;20586;-77
2023/01/27 08:16:39;;;;;;;15.77;9.23;;;;;;;;;;5035308;28;20191;-76
2023/01/27 08:19:07;;;;;;;17.55;10.63;;;;;;;;;;5035394;28;20281;-77
2023/01/27 08:21:34;;;;;;;16.88;9.55;;;;;;;;;;5035050;28;20238;-77
2023/01/27 08:24:03;;;;;;;21.35;10.85;;;;;;;;;;5035200;28;20278;-77
2023/01/27 08:26:30;;;;;;;15.55;8.50;;;;;;;;;;5035046;28;20234;-76
2023/01/27 08:28:57;;;;;;;17.83;10.00;;;;;;;;;;5035020;28;20725;-75
2023/01/27 08:31:24;;;;;;;19.73;9.60;;;;;;;;;;5035379;28;20195;-76
2023/01/27 08:33:53;;;;;;;14.80;9.52;;;;;;;;;;5035144;28;20199;-76
2023/01/27 08:36:21;;;;;;;17.67;8.23;;;;;;;;;;5035079;28;20226;-76
2023/01/27 08:38:49;;;;;;;16.48;9.75;;;;;;;;;;5035079;28;20620;-76
2023/01/27 08:41:19;;;;;;;12.77;8.90;;;;;;;;;;5034981;28;20198;-76
2023/01/27 08:43:47;;;;;;;14.77;9.18;;;;;;;;;;5035817;28;20195;-76
2023/01/27 08:46:14;;;;;;;27.70;15.13;;;;;;;;;;5058062;28;20260;-76
2023/01/27 08:48:42;;;;;;;19.73;13.00;;;;;;;;;;5068109;28;20229;-76
2023/01/27 08:51:10;;;;;;;16.65;9.63;;;;;;;;;;5064077;28;20292;-76
2023/01/27 08:53:37;;;;;;;15.35;8.90;;;;;;;;;;5064178;28;20297;-76
2023/01/27 08:56:06;;;;;;;17.25;10.15;;;;;;;;;;5063843;28;20194;-75
2023/01/27 08:58:35;;;;;;;17.45;8.88;;;;;;;;;;5067453;28;20197;-76
2023/01/27 09:01:03;;;;;;;14.32;9.18;;;;;;;;;;5063550;28;20194;-76
2023/01/27 09:03:32;;;;;;;13.20;8.25;;;;;;;;;;5066832;28;20198;-76
2023/01/27 09:06:00;;;;;;;13.25;7.20;;;;;;;;;;5062495;28;20222;-75
2023/01/27 09:08:27;;;;;;;12.70;7.90;;;;;;;;;;5064115;28;20190;-76
2023/01/27 09:10:55;;;;;;;16.25;9.05;;;;;;;;;;5063894;28;20260;-76
2023/01/27 09:13:22;;;;;;;17.92;10.07;;;;;;;;;;5064986;28;20629;-76
2023/01/27 09:15:53;;;;;;;14.73;9.98;;;;;;;;;;5062031;28;20229;-76
2023/01/27 09:18:20;;;;;;;15.68;9.50;;;;;;;;;;5059198;28;20225;-76
2023/01/27 09:20:47;;;;;;;19.27;10.65;;;;;;;;;;5067778;28;20194;-75
2023/01/27 09:23:15;;;;;;;12.93;8.75;;;;;;;;;;5063905;28;20198;-77
2023/01/27 09:25:42;;;;;;;17.50;11.15;;;;;;;;;;5065282;28;20275;-76
2023/01/27 09:28:15;;;;;;;14.15;8.70;;;;;;;;;;5066318;28;20280;-76
2023/01/27 09:30:43;;;;;;;16.75;10.95;;;;;;;;;;5063210;28;20198;-76
2023/01/27 09:33:12;;;;;;;14.98;9.38;;;;;;;;;;5065665;28;20221;-76
2023/01/27 09:35:42;;;;;;;14.32;10.95;;;;;;;;;;5062987;28;20399;-76
2023/01/27 09:38:12;;;;;;;19.98;10.05;;;;;;;;;;5065619;28;20281;-78
2023/01/27 09:40:42;;;;;;;12.75;8.52;;;;;;;;;;5063153;28;20281;-77
2023/01/27 09:43:16;;;;;;;16.15;8.80;;;;;;;;;;5065493;28;20201;-76
2023/01/27 09:45:47;;;;;;;16.50;9.90;;;;;;;;;;5020962;28;1172301;-76
2023/01/27 09:48:25;;;;;;;17.10;10.40;;;;;;;;;;5066262;28;20228;-76
2023/01/27 09:50:56;;;;;;;14.13;10.20;;;;;;;;;;5061636;28;20229;-76
2023/01/27 09:53:33;;;;;;;14.95;9.55;;;;;;;;;;5064167;28;20299;-77
2023/01/27 09:56:05;;;;;;;14.13;9.63;;;;;;;;;;5067240;28;20235;-77
2023/01/27 09:58:41;;;;;;;12.35;9.20;;;;;;;;;;5064676;28;20244;-77
2023/01/27 10:01:12;;;;;;;13.00;9.10;;;;;;;;;;5064113;28;20198;-77
2023/01/27 10:03:50;;;;;;;12.88;8.25;;;;;;;;;;5066659;28;20570;-77
2023/01/27 10:06:28;;;;;;;13.70;7.28;;;;;;;;;;5066981;28;20284;-77
2023/01/27 10:09:04;;;;;;;12.38;8.73;;;;;;;;;;5064601;28;20201;-76
2023/01/27 10:11:35;;;;;;;12.85;8.52;;;;;;;;;;5064542;28;20293;-76
2023/01/27 10:14:08;;;;;;;14.25;8.20;;;;;;;;;;5063606;28;20226;-77
2023/01/27 10:16:41;;;;;;;9.50;7.00;;;;;;;;;;5066775;28;20577;-76
2023/01/27 10:19:16;;;;;;;13.75;7.40;;;;;;;;;;5065574;28;20211;-76
2023/01/27 10:21:46;;;;;;;15.02;7.55;;;;;;;;;;5063411;28;20743;-76
2023/01/27 10:24:19;;;;;;;11.25;7.07;;;;;;;;;;5066229;28;20225;-76
2023/01/27 10:26:49;;;;;;;11.27;7.13;;;;;;;;;;5062021;28;20202;-76
2023/01/27 10:29:21;;;;;;;10.88;7.10;;;;;;;;;;5065721;28;20277;-76
2023/01/27 10:31:53;;;;;;;9.85;7.18;;;;;;;;;;5046591;28;20198;-76
2023/01/27 10:34:27;;;;;;;12.77;7.70;;;;;;;;;;5063429;28;20457;-75
2023/01/27 10:37:01;;;;;;;12.40;7.28;;;;;;;;;;5060669;28;20576;-76
2023/01/27 10:39:31;;;;;;;10.75;5.82;;;;;;;;;;5062899;28;20191;-76
2023/01/27 10:42:02;;;;;;;9.05;6.10;;;;;;;;;;5063678;28;20185;-77
2023/01/27 10:44:46;;;;;;;8.63;6.50;;;;;;;;;;5062202;28;20194;-75
2023/01/27 10:47:16;;;;;;;12.20;6.63;;;;;;;;;;5060945;28;20277;-76
2023/01/27 10:49:48;;;;;;;19.35;11.90;;;;;;;;;;5060829;28;20193;-76
2023/01/27 10:52:17;;;;;;;11.60;7.82;;;;;;;;;;5060660;28;20681;-76
2023/01/27 10:54:48;;;;;;;8.57;6.30;;;;;;;;;;5064871;28;20198;-76
2023/01/27 10:57:17;;;;;;;11.98;6.07;;;;;;;;;;5060981;28;20203;-76
2023/01/27 10:59:48;;;;;;;8.15;5.75;;;;;;;;;;5064102;28;20193;-76
2023/01/27 11:02:18;;;;;;;10.18;6.78;;;;;;;;;;5061822;28;20205;-76
2023/01/27 11:04:50;;;;;;;12.73;7.50;;;;;;;;;;5061143;28;20193;-76
2023/01/27 11:07:19;;;;;;;13.27;7.63;;;;;;;;;;5063968;28;20651;-75
2023/01/27 11:09:50;;;;;;;10.20;5.47;;;;;;;;;;5061480;28;20201;-76
2023/01/27 11:12:17;;;;;;;8.82;5.75;;;;;;;;;;5056160;28;20193;-76
2023/01/27 11:14:46;;;;;;;9.82;7.20;;;;;;;;;;5063434;28;20545;-76
2023/01/27 11:17:17;;;;;;;8.70;6.68;;;;;;;;;;5062092;28;20704;-76
2023/01/27 11:19:47;;;;;;;10.55;7.68;;;;;;;;;;5064289;28;20191;-76
2023/01/27 11:22:21;;;;;;;10.95;6.80;;;;;;;;;;5064347;28;20225;-76
2023/01/27 11:24:53;;;;;;;10.57;6.80;;;;;;;;;;5059295;28;20221;-77
2023/01/27 11:27:26;;;;;;;10.05;7.07;;;;;;;;;;5064262;28;20198;-78
2023/01/27 11:29:56;;;;;;;10.75;7.10;;;;;;;;;;5063533;28;20210;-76
2023/01/27 11:32:31;;;;;;;8.93;6.30;;;;;;;;;;5066600;28;20189;-76
2023/01/27 11:35:02;;;;;;;13.70;7.00;;;;;;;;;;5067845;28;20208;-76
2023/01/27 11:37:33;;;;;;;10.25;6.20;;;;;;;;;;5063846;28;20232;-76
2023/01/27 11:40:01;;;;;;;8.00;4.88;;;;;;;;;;5063956;28;21003;-76
2023/01/27 11:42:31;;;;;;;6.97;4.68;;;;;;;;;;5067902;28;20233;-77
2023/01/27 11:44:59;;;;;;;7.82;5.05;;;;;;;;;;5060689;28;20197;-77
2023/01/27 11:47:29;;;;;;;8.05;5.65;;;;;;;;;;5044848;28;20252;-77
2023/01/27 11:49:58;;;;;;;8.40;5.60;;;;;;;;;;5043897;28;20194;-77
2023/01/27 11:52:27;;;;;;;8.65;5.38;;;;;;;;;;5046927;28;20273;-77
2023/01/27 11:55:02;;;;;;;7.32;5.25;;;;;;;;;;5044316;28;20637;-78
2023/01/27 11:57:30;;;;;;;8.95;5.88;;;;;;;;;;5046883;28;20206;-77
2023/01/27 12:00:00;;;;;;;7.93;5.80;;;;;;;;;;5044845;28;20199;-77
2023/01/27 12:02:31;;;;;;;7.35;5.85;;;;;;;;;;5047888;28;20294;-77
2023/01/27 12:05:02;;;;;;;9.55;5.72;;;;;;;;;;5043466;28;20202;-76
2023/01/27 12:07:36;;;;;;;8.30;5.95;;;;;;;;;;5046656;28;20607;-77
2023/01/27 12:10:21;;;;;;;10.52;7.38;;;;;;;;;;5047893;28;20195;-77
2023/01/27 12:12:49;;;;;;;8.65;6.00;;;;;;;;;;5041535;28;20186;-77
2023/01/27 12:15:18;;;;;;;10.70;6.25;;;;;;;;;;5040301;28;20245;-77
2023/01/27 12:17:48;;;;;;;9.07;6.78;;;;;;;;;;5044160;28;20637;-77
2023/01/27 12:20:25;;;;;;;12.43;6.75;;;;;;;;;;5042152;28;20202;-76
2023/01/27 12:22:59;;;;;;;14.40;7.72;;;;;;;;;;5048367;28;20521;-77
2023/01/27 12:25:29;;;;;;;12.90;7.13;;;;;;;;;;5046386;28;20209;-77
2023/01/27 12:27:58;;;;;;;14.20;9.40;;;;;;;;;;5050694;28;20236;-78
2023/01/27 12:30:28;;;;;;;14.10;8.65;;;;;;;;;;5042218;28;20195;-78
2023/01/27 12:32:55;;;;;;;17.02;8.68;;;;;;;;;;5049260;28;20229;-78
2023/01/27 12:35:24;;;;;;;12.18;7.43;;;;;;;;;;5044576;28;20649;-78
2023/01/27 12:37:56;;;;;;;15.60;8.30;;;;;;;;;;5042233;28;20269;-77
2023/01/27 12:40:26;;;;;;;13.93;7.97;;;;;;;;;;5046550;28;20578;-77
2023/01/27 12:43:10;;;;;;;14.73;8.35;;;;;;;;;;5044708;28;20213;-77
2023/01/27 12:45:37;;;;;;;14.35;9.60;;;;;;;;;;5044699;28;20309;-78
2023/01/27 12:48:16;;;;;;;16.75;10.00;;;;;;;;;;5047891;28;20190;-76
2023/01/27 12:50:53;;;;;;;12.40;8.40;;;;;;;;;;5045787;28;20256;-77
2023/01/27 12:53:22;;;;;;;15.13;9.75;;;;;;;;;;5043733;28;20230;-77
2023/01/27 12:55:52;;;;;;;16.35;8.90;;;;;;;;;;5045534;28;20191;-78
2023/01/27 12:58:38;;;;;;;14.85;7.72;;;;;;;;;;5046624;28;20213;-77
2023/01/27 13:01:09;;;;;;;16.38;8.00;;;;;;;;;;5037523;28;20190;-78
2023/01/27 13:03:44;;;;;;;11.55;7.45;;;;;;;;;;5043633;28;20221;-77
2023/01/27 13:06:15;;;;;;;12.15;8.68;;;;;;;;;;5044645;28;20878;-78
2023/01/27 13:08:44;;;;;;;16.08;9.80;;;;;;;;;;5046060;28;20209;-78
2023/01/27 13:11:12;;;;;;;12.95;7.50;;;;;;;;;;5044457;28;20685;-78
2023/01/27 13:13:48;;;;;;;16.08;10.20;;;;;;;;;;5047511;28;20220;-78
2023/01/27 13:16:21;;;;;;;13.95;8.02;;;;;;;;;;5046887;28;20256;-78
2023/01/27 13:18:53;;;;;;;12.85;7.80;;;;;;;;;;5046154;28;20225;-79
2023/01/27 13:21:25;;;;;;;16.40;7.95;;;;;;;;;;5044627;28;20198;-78
2023/01/27 13:23:54;;;;;;;15.15;8.70;;;;;;;;;;5046285;28;20205;-78
2023/01/27 13:26:23;;;;;;;11.77;7.38;;;;;;;;;;5043404;28;20285;-78
2023/01/27 13:28:53;;;;;;;12.48;7.40;;;;;;;;;;5044325;28;20203;-78
2023/01/27 13:31:23;;;;;;;15.60;8.93;;;;;;;;;;5046258;28;20625;-78
2023/01/27 13:33:53;;;;;;;21.10;10.65;;;;;;;;;;5044823;28;20229;-78
2023/01/27 13:36:26;;;;;;;13.43;8.02;;;;;;;;;;5042765;28;20729;-78
2023/01/27 13:38:56;;;;;;;16.05;9.60;;;;;;;;;;5044985;28;20206;-77
2023/01/27 13:41:26;;;;;;;19.98;9.77;;;;;;;;;;5046449;28;20209;-77
2023/01/27 13:43:58;;;;;;;21.08;12.18;;;;;;;;;;5042608;28;20257;-78
2023/01/27 13:46:37;;;;;;;23.00;11.77;;;;;;;;;;5060384;28;20556;-78
2023/01/27 13:49:05;;;;;;;20.20;12.43;;;;;;;;;;5063924;28;20194;-78
2023/01/27 13:51:36;;;;;;;20.83;11.68;;;;;;;;;;5064701;28;20194;-78
2023/01/27 13:54:05;;;;;;;21.02;13.10;;;;;;;;;;5066535;28;20221;-78
2023/01/27 13:56:41;;;;;;;20.30;12.30;;;;;;;;;;5036809;28;20194;-78
2023/01/27 13:59:15;;;;;;;17.88;11.68;;;;;;;;;;5065551;28;20193;-79
2023/01/27 14:01:50;;;;;;;16.15;11.32;;;;;;;;;;5062496;28;20193;-79
2023/01/27 14:04:26;;;;;;;14.82;9.70;;;;;;;;;;5059057;28;20189;-78
2023/01/27 14:06:59;;;;;;;13.98;9.05;;;;;;;;;;5065041;28;20224;-79
2023/01/27 14:09:32;;;;;;;13.15;9.20;;;;;;;;;;5061081;28;20229;-79
2023/01/27 14:12:04;;;;;;;13.73;8.32;;;;;;;;;;5064613;28;20648;-79
2023/01/27 14:14:40;;;;;;;17.65;11.07;;;;;;;;;;5062219;28;20232;-77
2023/01/27 14:17:25;;;;;;;16.92;10.90;;;;;;;;;;5065228;28;20584;-77
2023/01/27 14:19:57;;;;;;;13.60;8.35;;;;;;;;;;5067172;28;20589;-79
2023/01/27 14:22:27;;;;;;;12.77;8.60;;;;;;;;;;5059252;28;20651;-79
2023/01/27 14:24:58;;;;;;;14.95;8.75;;;;;;;;;;5065994;28;20190;-79
2023/01/27 14:27:30;;;;;;;17.33;10.13;;;;;;;;;;5061612;28;20678;-77
2023/01/27 14:30:02;;;;;;;15.68;10.23;;;;;;;;;;5061351;28;20190;-78
2023/01/27 14:32:35;;;;;;;15.45;9.52;;;;;;;;;;5065092;28;20189;-79
2023/01/27 14:35:15;;;;;;;12.10;8.15;;;;;;;;;;5061140;28;20230;-79
2023/01/27 14:37:47;;;;;;;14.95;9.40;;;;;;;;;;5062659;28;20210;-78
2023/01/27 14:40:17;;;;;;;12.65;8.77;;;;;;;;;;5061988;28;20198;-78
2023/01/27 14:42:49;;;;;;;17.38;10.85;;;;;;;;;;5061009;28;20201;-77
2023/01/27 14:45:19;;;;;;;16.05;11.40;;;;;;;;;;5065851;28;20287;-77
2023/01/27 14:47:54;;;;;;;15.48;11.02;;;;;;;;;;5061911;28;20201;-77
2023/01/27 14:50:25;;;;;;;15.77;9.75;;;;;;;;;;5063975;28;20189;-77
2023/01/27 14:52:58;;;;;;;16.90;9.25;;;;;;;;;;5061520;28;20197;-79
2023/01/27 14:55:36;;;;;;;14.02;7.65;;;;;;;;;;5062744;28;20620;-77
2023/01/27 14:58:17;;;;;;;16.75;12.45;;;;;;;;;;5062573;28;20228;-78
2023/01/27 15:00:48;;;;;;;17.15;9.52;;;;;;;;;;5059744;28;20194;-78
2023/01/27 15:03:33;;;;;;;21.20;13.90;;;;;;;;;;5063546;28;20198;-77
2023/01/27 15:06:06;;;;;;;19.58;13.35;;;;;;;;;;5063902;28;20197;-78
2023/01/27 15:08:37;;;;;;;16.60;12.02;;;;;;;;;;5063085;28;20185;-77